createdAt,value
2023-03-28T00:01:12.956Z,0.30
2023-03-28T00:03:41.622Z,0.50
2023-03-28T00:06:12.064Z,0.60
2023-03-28T00:08:41.975Z,0.60
2023-03-28T00:11:12.728Z,0.60
2023-03-28T00:13:41.584Z,0.70
2023-03-28T00:16:13.735Z,0.60
2023-03-28T00:18:42.901Z,0.60
2023-03-28T00:21:23.636Z,0.60
2023-03-28T00:23:55.261Z,0.80
2023-03-28T00:26:26.970Z,0.80
2023-03-28T00:28:56.892Z,0.63
2023-03-28T00:31:27.503Z,0.53
2023-03-28T00:33:56.551Z,0.50
2023-03-28T00:36:29.781Z,0.73
2023-03-28T00:39:01.328Z,0.70
2023-03-28T00:41:32.356Z,0.80
2023-03-28T00:44:01.559Z,0.77
2023-03-28T00:46:36.558Z,0.53
2023-03-28T00:49:06.983Z,0.60
2023-03-28T00:51:38.646Z,0.70
2023-03-28T00:54:10.151Z,0.60
2023-03-28T00:56:39.821Z,0.70
2023-03-28T00:59:12.937Z,0.80
2023-03-28T01:01:44.604Z,0.70
2023-03-28T01:04:20.556Z,0.80
2023-03-28T01:06:55.748Z,0.90
2023-03-28T01:09:25.913Z,0.60
2023-03-28T01:11:57.384Z,1.00
2023-03-28T01:14:29.199Z,0.70
2023-03-28T01:17:01.222Z,0.80
2023-03-28T01:19:45.876Z,0.80
2023-03-28T01:22:56.226Z,0.60
2023-03-28T01:26:11.198Z,1.10
2023-03-28T01:29:15.557Z,0.70
2023-03-28T01:32:10.303Z,0.90
2023-03-28T01:35:41.344Z,0.60
2023-03-28T01:38:16.078Z,0.70
2023-03-28T01:40:54.070Z,0.80
2023-03-28T01:43:37.665Z,1.00
2023-03-28T01:46:10.365Z,0.80
2023-03-28T01:48:48.920Z,0.93
2023-03-28T01:51:25.564Z,1.00
2023-03-28T01:54:02.829Z,0.80
2023-03-28T01:56:37.882Z,0.87
2023-03-28T01:59:13.812Z,1.00
2023-03-28T02:02:16.643Z,1.03
2023-03-28T02:04:49.061Z,1.23
2023-03-28T02:07:19.421Z,1.40
2023-03-28T02:10:25.671Z,0.90
2023-03-28T02:13:07.967Z,1.00
2023-03-28T02:16:02.385Z,0.80
2023-03-28T02:18:59.566Z,0.93
2023-03-28T02:22:01.994Z,0.80
2023-03-28T02:24:52.124Z,1.50
2023-03-28T02:27:58.973Z,1.30
2023-03-28T02:30:53.361Z,0.90
2023-03-28T02:33:39.200Z,1.00
2023-03-28T02:36:23.354Z,0.93
2023-03-28T02:39:01.710Z,0.80
2023-03-28T02:41:38.433Z,0.87
2023-03-28T02:44:30.095Z,0.70
2023-03-28T02:47:07.477Z,1.00
2023-03-28T02:49:50.657Z,0.90
2023-03-28T02:52:30.636Z,1.27
2023-03-28T02:55:03.356Z,1.30
2023-03-28T02:57:42.859Z,1.57
2023-03-28T03:00:16.693Z,1.60
2023-03-28T03:02:48.136Z,1.70
2023-03-28T03:05:17.719Z,1.57
2023-03-28T03:07:45.997Z,1.20
2023-03-28T03:10:15.440Z,1.67
2023-03-28T03:12:47.437Z,1.77
2023-03-28T03:15:17.672Z,1.50
2023-03-28T03:18:06.496Z,1.53
2023-03-28T03:20:35.914Z,1.70
2023-03-28T03:23:05.400Z,1.53
2023-03-28T03:25:36.740Z,1.37
2023-03-28T03:28:12.058Z,1.53
2023-03-28T03:30:43.026Z,1.73
2023-03-28T03:33:16.846Z,1.60
2023-03-28T03:35:51.392Z,1.90
2023-03-28T03:38:20.743Z,1.53
2023-03-28T03:40:49.058Z,1.90
2023-03-28T03:43:17.890Z,1.53
2023-03-28T03:45:47.953Z,1.23
2023-03-28T03:48:16.305Z,1.40
2023-03-28T03:50:44.583Z,1.67
2023-03-28T03:53:16.647Z,1.83
2023-03-28T03:55:54.947Z,1.60
2023-03-28T03:58:23.646Z,1.70
2023-03-28T04:00:53.479Z,1.60
2023-03-28T04:03:38.885Z,1.57
2023-03-28T04:06:08.133Z,1.73
2023-03-28T04:08:37.459Z,1.73
2023-03-28T04:11:10.601Z,1.50
2023-03-28T04:13:43.353Z,1.80
2023-03-28T04:16:13.849Z,1.70
2023-03-28T04:18:52.869Z,1.60
2023-03-28T04:21:27.611Z,1.80
2023-03-28T04:23:57.670Z,1.40
2023-03-28T04:26:50.253Z,1.90
2023-03-28T04:29:25.171Z,1.67
2023-03-28T04:32:15.098Z,2.03
2023-03-28T04:35:03.283Z,1.80
2023-03-28T04:37:31.933Z,2.13
2023-03-28T04:40:10.383Z,1.87
2023-03-28T04:43:02.777Z,1.80
2023-03-28T04:45:36.757Z,2.13
2023-03-28T04:48:19.590Z,2.10
2023-03-28T04:50:48.832Z,2.47
2023-03-28T04:53:18.256Z,2.87
2023-03-28T04:56:22.292Z,2.30
2023-03-28T04:58:52.022Z,2.10
2023-03-28T05:01:26.102Z,2.20
2023-03-28T05:04:27.998Z,2.20
2023-03-28T05:07:03.874Z,2.30
2023-03-28T05:09:33.593Z,2.40
2023-03-28T05:12:02.447Z,2.20
2023-03-28T05:14:33.565Z,2.20
2023-03-28T05:17:13.932Z,2.60
2023-03-28T05:20:00.113Z,2.37
2023-03-28T05:22:34.858Z,5.90
2023-03-28T05:25:04.396Z,11.90
2023-03-28T05:27:32.743Z,6.60
2023-03-28T05:30:01.244Z,4.80
2023-03-28T05:32:29.853Z,2.00
2023-03-28T05:34:59.831Z,2.03
2023-03-28T05:37:32.306Z,1.70
2023-03-28T05:40:02.323Z,2.20
2023-03-28T05:42:33.221Z,1.60
2023-03-28T05:45:12.617Z,1.73
2023-03-28T05:47:57.005Z,1.87
2023-03-28T05:50:27.546Z,1.73
2023-03-28T05:53:03.508Z,1.80
2023-03-28T05:55:33.757Z,2.10
2023-03-28T05:58:04.136Z,1.53
2023-03-28T06:00:42.105Z,2.00
2023-03-28T06:03:17.240Z,1.70
2023-03-28T06:05:49.391Z,1.73
2023-03-28T06:08:23.745Z,1.87
2023-03-28T06:10:52.525Z,1.60
2023-03-28T06:13:28.969Z,1.80
2023-03-28T06:15:57.573Z,1.80
2023-03-28T06:18:32.770Z,1.70
2023-03-28T06:21:03.445Z,2.63
2023-03-28T06:23:32.305Z,2.00
2023-03-28T06:26:01.515Z,1.90
2023-03-28T06:28:37.116Z,2.27
2023-03-28T06:31:34.701Z,2.23
2023-03-28T06:34:06.555Z,2.67
2023-03-28T06:36:39.756Z,2.17
2023-03-28T06:39:10.493Z,1.90
2023-03-28T06:41:39.357Z,2.10
2023-03-28T06:44:07.711Z,1.83
2023-03-28T06:46:59.262Z,2.00
2023-03-28T06:49:28.734Z,2.43
2023-03-28T06:52:30.909Z,2.93
2023-03-28T06:55:01.225Z,2.63
2023-03-28T06:57:29.588Z,2.00
2023-03-28T07:00:10.635Z,2.70
2023-03-28T07:02:57.828Z,2.73
2023-03-28T07:05:26.458Z,2.60
2023-03-28T07:07:57.390Z,2.50
2023-03-28T07:10:25.907Z,2.80
2023-03-28T07:12:54.286Z,2.93
2023-03-28T07:15:22.660Z,2.50
2023-03-28T07:17:51.428Z,3.13
2023-03-28T07:20:19.977Z,2.50
2023-03-28T07:22:48.728Z,2.70
2023-03-28T07:25:19.155Z,2.73
2023-03-28T07:27:49.372Z,2.53
2023-03-28T07:30:17.815Z,2.90
2023-03-28T07:32:55.512Z,3.83
2023-03-28T07:35:25.516Z,3.57
2023-03-28T07:37:54.622Z,4.50
2023-03-28T07:40:38.886Z,3.73
2023-03-28T07:43:07.512Z,4.50
2023-03-28T07:45:37.019Z,5.20
2023-03-28T07:48:08.131Z,5.00
2023-03-28T07:50:36.989Z,3.50
2023-03-28T07:53:05.529Z,3.60
2023-03-28T07:55:48.355Z,3.73
2023-03-28T07:58:25.917Z,3.43
2023-03-28T08:00:58.036Z,3.70
2023-03-28T08:03:46.168Z,3.37
2023-03-28T08:06:30.998Z,3.40
2023-03-28T08:09:02.428Z,4.17
2023-03-28T08:11:41.875Z,3.90
2023-03-28T08:14:13.475Z,3.63
2023-03-28T08:16:42.915Z,4.43
2023-03-28T08:19:12.176Z,4.30
2023-03-28T08:22:16.761Z,4.97
2023-03-28T08:24:54.604Z,3.47
2023-03-28T08:27:26.435Z,1.90
2023-03-28T08:29:59.747Z,1.43
2023-03-28T08:32:30.469Z,1.77
2023-03-28T08:35:02.953Z,1.70
2023-03-28T08:37:33.045Z,1.40
2023-03-28T08:40:07.561Z,1.60
2023-03-28T08:42:51.688Z,1.50
2023-03-28T08:45:33.432Z,1.43
2023-03-28T08:48:14.787Z,1.90
2023-03-28T08:50:47.067Z,1.67
2023-03-28T08:53:23.468Z,1.57
2023-03-28T08:55:53.940Z,1.20
2023-03-28T08:58:26.801Z,1.30
2023-03-28T09:00:55.406Z,1.40
2023-03-28T09:03:25.245Z,1.40
2023-03-28T09:06:07.731Z,1.20
2023-03-28T09:08:54.537Z,1.30
2023-03-28T09:11:37.724Z,0.80
2023-03-28T09:14:37.381Z,1.10
2023-03-28T09:17:15.011Z,1.00
2023-03-28T09:20:11.311Z,1.30
2023-03-28T09:23:15.578Z,1.00
2023-03-28T09:26:10.974Z,1.00
2023-03-28T09:28:49.591Z,1.20
2023-03-28T09:31:23.395Z,1.00
2023-03-28T09:33:55.894Z,0.90
2023-03-28T09:36:45.375Z,0.90
2023-03-28T09:39:25.573Z,1.50
2023-03-28T09:42:03.847Z,1.23
2023-03-28T09:44:59.220Z,1.30
2023-03-28T09:48:13.086Z,0.80
2023-03-28T09:50:46.558Z,1.00
2023-03-28T09:53:23.114Z,0.90
2023-03-28T09:56:03.454Z,0.90
2023-03-28T09:58:50.505Z,0.90
2023-03-28T10:01:48.206Z,0.87
2023-03-28T10:04:20.190Z,0.97
2023-03-28T10:07:22.361Z,0.87
2023-03-28T10:09:58.892Z,1.00
2023-03-28T10:12:34.894Z,0.80
2023-03-28T10:15:03.508Z,0.60
2023-03-28T10:17:52.282Z,0.83
2023-03-28T10:20:28.570Z,0.90
2023-03-28T10:23:02.669Z,1.07
2023-03-28T10:25:41.140Z,0.80
2023-03-28T10:28:17.737Z,0.87
2023-03-28T10:30:55.416Z,1.23
2023-03-28T10:33:34.988Z,1.40
2023-03-28T10:36:31.980Z,1.00
2023-03-28T10:39:22.442Z,0.90
2023-03-28T10:42:12.570Z,1.30
2023-03-28T10:45:21.389Z,1.17
2023-03-28T10:47:51.878Z,1.10
2023-03-28T10:50:28.835Z,0.80
2023-03-28T10:53:17.088Z,1.43
2023-03-28T10:55:55.058Z,0.87
2023-03-28T10:58:43.016Z,1.00
2023-03-28T11:01:22.663Z,0.80
2023-03-28T11:04:18.158Z,0.80
2023-03-28T11:06:53.145Z,0.90
2023-03-28T11:09:41.096Z,0.87
2023-03-28T11:12:54.234Z,1.00
2023-03-28T11:15:47.075Z,0.90
2023-03-28T11:18:46.641Z,0.97
2023-03-28T11:21:30.418Z,0.80
2023-03-28T11:24:13.496Z,0.70
2023-03-28T11:27:12.657Z,0.70
2023-03-28T11:29:56.010Z,1.07
2023-03-28T11:32:35.680Z,0.90
2023-03-28T11:35:14.940Z,0.93
2023-03-28T11:37:52.519Z,0.93
2023-03-28T11:40:27.648Z,1.10
2023-03-28T11:43:07.612Z,0.90
2023-03-28T11:45:52.064Z,0.83
2023-03-28T11:48:28.982Z,1.00
2023-03-28T11:51:07.695Z,0.90
2023-03-28T11:53:59.107Z,0.70
2023-03-28T11:56:42.672Z,0.80
2023-03-28T11:59:21.085Z,0.83
2023-03-28T12:01:54.562Z,1.27
2023-03-28T12:04:28.940Z,0.70
2023-03-28T12:07:10.492Z,0.80
2023-03-28T12:09:58.040Z,0.90
2023-03-28T12:12:32.200Z,3.20
2023-03-28T12:15:07.815Z,1.00
2023-03-28T12:18:14.256Z,1.00
2023-03-28T12:20:51.238Z,0.77
2023-03-28T12:23:39.015Z,1.00
2023-03-28T12:26:36.743Z,0.70
2023-03-28T12:29:15.431Z,1.10
2023-03-28T12:31:51.889Z,0.80
2023-03-28T12:34:29.015Z,0.80
2023-03-28T12:37:29.857Z,0.70
2023-03-28T12:40:15.221Z,1.10
2023-03-28T12:42:46.438Z,1.10
2023-03-28T12:45:19.632Z,0.83
2023-03-28T12:47:54.101Z,0.70
2023-03-28T12:50:29.416Z,0.70
2023-03-28T12:53:00.565Z,1.30
2023-03-28T12:55:44.537Z,0.90
2023-03-28T12:58:22.241Z,1.00
2023-03-28T13:01:20.269Z,1.73
2023-03-28T13:04:37.909Z,0.90
2023-03-28T13:07:25.815Z,2.27
2023-03-28T13:10:00.886Z,1.00
2023-03-28T13:12:36.164Z,0.80
2023-03-28T13:15:30.119Z,1.20
2023-03-28T13:18:27.864Z,1.00
2023-03-28T13:20:56.765Z,0.77
2023-03-28T13:23:32.993Z,0.67
2023-03-28T13:26:03.595Z,0.80
2023-03-28T13:28:43.170Z,0.60
2023-03-28T13:31:26.271Z,0.73
2023-03-28T13:34:01.772Z,0.90
2023-03-28T13:36:33.625Z,1.00
2023-03-28T13:39:21.041Z,0.87
2023-03-28T13:42:00.945Z,0.80
2023-03-28T13:44:43.261Z,1.07
2023-03-28T13:47:23.392Z,1.10
2023-03-28T13:49:59.125Z,1.00
2023-03-28T13:52:28.628Z,0.90
2023-03-28T13:55:20.794Z,1.33
2023-03-28T13:57:50.305Z,0.97
2023-03-28T14:00:22.031Z,0.77
2023-03-28T14:02:53.804Z,0.87
2023-03-28T14:05:24.461Z,1.07
2023-03-28T14:07:55.413Z,0.87
2023-03-28T14:10:31.514Z,1.13
2023-03-28T14:13:03.840Z,0.80
2023-03-28T14:15:38.829Z,0.90
2023-03-28T14:18:13.580Z,0.70
2023-03-28T14:20:42.405Z,0.90
2023-03-28T14:23:26.658Z,1.10
2023-03-28T14:25:55.433Z,1.10
2023-03-28T14:28:29.737Z,1.03
2023-03-28T14:30:58.809Z,0.90
2023-03-28T14:33:37.289Z,0.67
2023-03-28T14:36:07.183Z,1.37
2023-03-28T14:38:38.079Z,0.80
2023-03-28T14:41:09.873Z,0.90
2023-03-28T14:43:38.520Z,0.70
2023-03-28T14:46:09.635Z,1.07
2023-03-28T14:48:40.396Z,1.00
2023-03-28T14:51:12.496Z,0.97
2023-03-28T14:53:45.779Z,0.90
2023-03-28T14:56:19.530Z,0.83
2023-03-28T14:58:50.048Z,0.73
2023-03-28T15:01:22.973Z,0.67
2023-03-28T15:03:58.026Z,0.87
2023-03-28T15:06:29.370Z,1.00
2023-03-28T15:09:01.192Z,0.70
2023-03-28T15:11:32.745Z,0.80
2023-03-28T15:14:04.107Z,1.00
2023-03-28T15:16:38.815Z,1.00
2023-03-28T15:19:17.889Z,0.80
2023-03-28T15:21:54.523Z,1.03
2023-03-28T15:24:23.619Z,0.93
2023-03-28T15:26:55.694Z,1.30
2023-03-28T15:29:25.433Z,1.20
2023-03-28T15:31:54.915Z,1.00
2023-03-28T15:34:27.427Z,1.33
2023-03-28T15:37:00.671Z,1.07
2023-03-28T15:39:32.005Z,1.00
2023-03-28T15:42:02.529Z,1.10
2023-03-28T15:44:33.102Z,1.03
2023-03-28T15:47:05.694Z,1.17
2023-03-28T15:49:38.429Z,1.60
2023-03-28T15:52:10.383Z,0.90
2023-03-28T15:54:43.091Z,1.10
2023-03-28T15:57:15.751Z,0.97
2023-03-28T15:59:48.575Z,1.43
2023-03-28T16:02:29.639Z,1.10
2023-03-28T16:05:03.728Z,1.03
2023-03-28T16:07:37.574Z,1.10
2023-03-28T16:10:06.855Z,0.80
2023-03-28T16:12:46.393Z,1.77
2023-03-28T16:15:35.963Z,1.20
2023-03-28T16:18:18.628Z,1.00
2023-03-28T16:20:54.878Z,1.10
2023-03-28T16:23:24.023Z,1.47
2023-03-28T16:25:53.655Z,1.63
2023-03-28T16:28:22.189Z,1.20
2023-03-28T16:30:50.702Z,1.20
2023-03-28T16:33:19.903Z,1.80
2023-03-28T16:35:48.230Z,1.70
2023-03-28T16:38:18.252Z,1.60
2023-03-28T16:40:48.657Z,1.37
2023-03-28T16:43:17.424Z,1.40
2023-03-28T16:45:48.150Z,1.70
2023-03-28T16:48:17.033Z,1.50
2023-03-28T16:50:54.435Z,1.70
2023-03-28T16:53:24.359Z,2.00
2023-03-28T16:55:53.768Z,1.60
2023-03-28T16:58:23.098Z,1.90
2023-03-28T17:00:53.128Z,1.83
2023-03-28T17:03:22.053Z,2.07
2023-03-28T17:05:50.649Z,2.00
2023-03-28T17:08:19.015Z,2.27
2023-03-28T17:10:48.753Z,1.63
2023-03-28T17:13:19.801Z,1.93
2023-03-28T17:15:51.890Z,2.20
2023-03-28T17:18:22.227Z,2.47
2023-03-28T17:20:59.991Z,2.10
2023-03-28T17:23:29.219Z,2.37
2023-03-28T17:25:58.976Z,2.63
2023-03-28T17:28:28.554Z,2.00
2023-03-28T17:30:57.113Z,1.93
2023-03-28T17:33:29.402Z,1.97
2023-03-28T17:35:57.832Z,2.27
2023-03-28T17:38:26.268Z,2.13
2023-03-28T17:40:54.611Z,1.80
2023-03-28T17:43:24.330Z,2.20
2023-03-28T17:45:55.144Z,2.07
2023-03-28T17:48:24.351Z,1.90
2023-03-28T17:50:53.988Z,2.37
2023-03-28T17:53:22.758Z,2.50
2023-03-28T17:55:51.298Z,3.53
2023-03-28T17:58:19.858Z,3.00
2023-03-28T18:00:49.993Z,3.40
2023-03-28T18:03:18.468Z,3.00
2023-03-28T18:06:07.932Z,3.13
2023-03-28T18:08:38.762Z,3.00
2023-03-28T18:11:09.588Z,2.30
2023-03-28T18:13:39.307Z,3.60
2023-03-28T18:16:12.264Z,2.70
2023-03-28T18:18:41.579Z,2.90
2023-03-28T18:21:11.521Z,2.87
2023-03-28T18:23:40.438Z,2.60
2023-03-28T18:26:09.282Z,2.40
2023-03-28T18:28:37.721Z,2.63
2023-03-28T18:31:12.062Z,2.33
2023-03-28T18:33:41.296Z,2.70
2023-03-28T18:36:11.195Z,2.80
2023-03-28T18:38:42.303Z,2.40
2023-03-28T18:41:12.710Z,2.90
2023-03-28T18:43:42.567Z,3.80
2023-03-28T18:46:16.009Z,3.13
2023-03-28T18:48:45.844Z,2.90
2023-03-28T18:51:14.209Z,2.50
2023-03-28T18:53:43.224Z,2.70
2023-03-28T18:56:13.476Z,2.60
2023-03-28T18:58:42.330Z,2.20
2023-03-28T19:01:12.651Z,2.50
2023-03-28T19:03:42.480Z,3.20
2023-03-28T19:06:12.650Z,2.57
2023-03-28T19:08:41.504Z,2.10
2023-03-28T19:11:13.285Z,2.30
2023-03-28T19:13:42.676Z,2.27
2023-03-28T19:16:13.790Z,2.87
2023-03-28T19:18:43.950Z,3.23
2023-03-28T19:21:13.261Z,3.50
2023-03-28T19:23:42.069Z,2.97
2023-03-28T19:26:13.218Z,3.73
2023-03-28T19:28:41.906Z,2.97
2023-03-28T19:31:13.787Z,3.70
2023-03-28T19:33:43.663Z,3.33
2023-03-28T19:36:14.989Z,4.30
2023-03-28T19:50:43.350Z,6.47
2023-03-28T19:53:12.131Z,6.97
2023-03-28T19:55:40.479Z,7.20
2023-03-28T19:58:10.274Z,6.57
2023-03-28T20:00:38.583Z,8.87
2023-03-28T20:03:07.202Z,7.40
2023-03-28T20:05:35.563Z,8.33
2023-03-28T20:08:06.126Z,8.03
2023-03-28T20:10:39.237Z,8.10
2023-03-28T20:13:07.952Z,7.93
2023-03-28T20:15:41.275Z,8.30
2023-03-28T20:18:10.635Z,8.17
2023-03-28T20:20:39.584Z,8.33
2023-03-28T20:23:12.078Z,8.50
2023-03-28T20:25:41.491Z,6.87
2023-03-28T20:28:10.178Z,6.40
2023-03-28T20:30:39.360Z,5.87
2023-03-28T20:33:08.093Z,4.97
2023-03-28T20:35:36.748Z,5.40
2023-03-28T20:38:05.665Z,5.30
2023-03-28T20:40:37.005Z,5.60
2023-03-28T20:43:05.874Z,4.90
2023-03-28T20:45:36.129Z,4.70
2023-03-28T20:48:07.683Z,5.03
2023-03-28T20:50:37.645Z,4.43
2023-03-28T20:53:06.884Z,5.93
2023-03-28T20:55:37.579Z,4.77
2023-03-28T20:58:06.077Z,4.10
2023-03-28T21:00:35.881Z,4.47
2023-03-28T21:03:04.417Z,4.57
2023-03-28T21:05:33.256Z,4.57
2023-03-28T21:08:04.398Z,3.97
2023-03-28T21:10:33.498Z,3.07
2023-03-28T21:13:03.275Z,3.00
2023-03-28T21:15:32.486Z,3.37
2023-03-28T21:18:00.867Z,3.33
2023-03-28T21:20:29.313Z,3.63
2023-03-28T21:22:57.602Z,3.43
2023-03-28T21:25:25.965Z,3.60
2023-03-28T21:27:54.236Z,3.87
2023-03-28T21:30:23.914Z,3.10
2023-03-28T21:32:54.541Z,3.33
2023-03-28T21:35:23.094Z,3.67
2023-03-28T21:37:51.796Z,4.07
2023-03-28T21:40:20.165Z,3.00
2023-03-28T21:42:48.451Z,2.63
2023-03-28T21:45:17.037Z,2.77
2023-03-28T21:47:47.711Z,3.13
2023-03-28T21:50:16.910Z,3.63
2023-03-28T21:52:45.149Z,3.40
2023-03-28T21:55:13.412Z,3.20
2023-03-28T21:57:41.690Z,3.60
2023-03-28T22:00:15.004Z,3.10
2023-03-28T22:02:44.479Z,2.50
2023-03-28T22:05:26.690Z,2.40
2023-03-28T22:07:56.984Z,2.10
2023-03-28T22:10:27.108Z,2.13
2023-03-28T22:13:02.230Z,2.30
2023-03-28T22:15:32.819Z,2.70
2023-03-28T22:18:01.316Z,2.77
2023-03-28T22:20:31.056Z,2.13
2023-03-28T22:23:01.429Z,2.80
2023-03-28T22:25:35.836Z,2.73
2023-03-28T22:28:05.168Z,2.10
2023-03-28T22:30:33.937Z,2.10
2023-03-28T22:33:03.934Z,2.10
2023-03-28T22:35:34.301Z,2.00
2023-03-28T22:38:04.034Z,2.00
2023-03-28T22:40:32.456Z,1.80
2023-03-28T22:43:00.840Z,1.73
2023-03-28T22:45:29.252Z,1.40
2023-03-28T22:48:00.430Z,1.50
2023-03-28T22:50:29.446Z,1.60
2023-03-28T22:53:02.363Z,2.30
2023-03-28T22:55:31.626Z,2.60
2023-03-28T22:57:59.958Z,2.20
2023-03-28T23:00:28.759Z,1.83
2023-03-28T23:02:57.449Z,1.87
2023-03-28T23:05:25.871Z,1.70
2023-03-28T23:07:54.965Z,1.50
2023-03-28T23:10:24.881Z,1.53
2023-03-28T23:12:53.220Z,1.33
2023-03-28T23:15:21.619Z,1.40
2023-03-28T23:17:50.437Z,1.67
2023-03-28T23:20:19.235Z,1.33
2023-03-28T23:22:49.138Z,1.00
2023-03-28T23:25:19.519Z,1.67
2023-03-28T23:27:49.522Z,1.30
2023-03-28T23:30:18.077Z,1.20
2023-03-28T23:32:46.382Z,1.00
2023-03-28T23:35:14.938Z,1.00
2023-03-28T23:37:43.175Z,0.87
2023-03-28T23:40:15.034Z,1.30
2023-03-28T23:42:45.204Z,1.07
2023-03-28T23:45:16.587Z,1.13
2023-03-28T23:47:45.163Z,0.90
2023-03-28T23:50:14.465Z,0.80
2023-03-28T23:52:44.060Z,1.20
2023-03-28T23:55:12.324Z,1.07
2023-03-28T23:57:41.435Z,1.17
